createdAt,value
2023-05-09T00:00:56.129Z,0.00
2023-05-09T00:01:56.221Z,0.00
2023-05-09T00:02:56.268Z,0.00
2023-05-09T00:03:56.286Z,0.00
2023-05-09T00:04:56.316Z,0.00
2023-05-09T00:05:56.366Z,0.00
2023-05-09T00:06:56.409Z,7.64
2023-05-09T00:07:56.492Z,25.00
2023-05-09T00:08:56.517Z,24.30
2023-05-09T00:09:56.762Z,25.01
2023-05-09T00:10:56.636Z,26.03
2023-05-09T00:11:56.691Z,25.00
2023-05-09T00:12:56.771Z,25.00
2023-05-09T00:13:56.776Z,26.09
2023-05-09T00:14:56.890Z,25.02
2023-05-09T00:15:56.878Z,26.73
2023-05-09T00:16:56.997Z,25.00
2023-05-09T00:17:57.552Z,25.00
2023-05-09T00:18:57.027Z,25.64
2023-05-09T00:19:57.105Z,26.17
2023-05-09T00:20:57.143Z,26.57
2023-05-09T00:21:57.182Z,27.04
2023-05-09T00:22:57.223Z,26.95
2023-05-09T00:23:57.279Z,25.32
2023-05-09T00:24:57.303Z,25.62
2023-05-09T00:25:57.743Z,25.43
2023-05-09T00:26:57.369Z,25.00
2023-05-09T00:27:57.404Z,25.00
2023-05-09T00:28:57.409Z,27.38
2023-05-09T00:29:57.454Z,25.80
2023-05-09T00:30:57.456Z,27.85
2023-05-09T00:31:57.519Z,25.00
2023-05-09T00:32:57.555Z,25.33
2023-05-09T00:33:57.803Z,25.00
2023-05-09T00:34:57.570Z,25.27
2023-05-09T00:35:57.556Z,26.33
2023-05-09T00:36:57.565Z,26.03
2023-05-09T00:37:57.586Z,26.63
2023-05-09T00:38:57.609Z,25.95
2023-05-09T00:39:57.654Z,29.67
2023-05-09T00:40:57.671Z,26.83
2023-05-09T00:41:57.848Z,25.00
2023-05-09T00:42:57.777Z,27.57
2023-05-09T00:43:57.812Z,25.81
2023-05-09T00:44:57.843Z,26.11
2023-05-09T00:45:57.911Z,25.53
2023-05-09T00:46:57.947Z,25.45
2023-05-09T00:47:58.008Z,27.13
2023-05-09T00:48:58.033Z,26.66
2023-05-09T00:49:58.143Z,26.12
2023-05-09T00:50:58.121Z,28.24
2023-05-09T00:51:58.152Z,25.38
2023-05-09T00:52:58.201Z,25.23
2023-05-09T00:53:58.194Z,27.02
2023-05-09T00:54:58.216Z,28.80
2023-05-09T00:55:58.210Z,26.31
2023-05-09T00:56:58.194Z,27.80
2023-05-09T00:57:58.329Z,28.26
2023-05-09T00:58:58.241Z,26.65
2023-05-09T00:59:58.224Z,25.40
2023-05-09T01:00:58.248Z,27.84
2023-05-09T01:01:58.274Z,28.20
2023-05-09T01:02:58.351Z,25.56
2023-05-09T01:03:58.321Z,26.85
2023-05-09T01:04:58.341Z,26.53
2023-05-09T01:05:58.376Z,28.03
2023-05-09T01:06:59.171Z,30.33
2023-05-09T01:07:58.448Z,27.51
2023-05-09T01:08:58.534Z,28.27
2023-05-09T01:09:58.559Z,28.04
2023-05-09T01:10:58.612Z,28.90
2023-05-09T01:11:58.651Z,26.46
2023-05-09T01:12:58.747Z,25.53
2023-05-09T01:13:58.828Z,27.26
2023-05-09T01:14:58.758Z,27.14
2023-05-09T01:15:58.824Z,26.29
2023-05-09T01:16:58.795Z,26.79
2023-05-09T01:17:58.875Z,25.98
2023-05-09T01:18:58.885Z,25.37
2023-05-09T01:19:58.937Z,26.08
2023-05-09T01:20:58.996Z,27.75
2023-05-09T01:21:59.007Z,25.98
2023-05-09T01:22:59.032Z,25.69
2023-05-09T01:23:59.074Z,25.82
2023-05-09T01:24:59.141Z,26.13
2023-05-09T01:25:59.192Z,28.60
2023-05-09T01:26:59.257Z,25.99
2023-05-09T01:27:59.279Z,28.06
2023-05-09T01:28:59.314Z,26.35
2023-05-09T01:29:59.488Z,26.09
2023-05-09T01:30:59.425Z,25.00
2023-05-09T01:31:59.430Z,27.09
2023-05-09T01:32:59.513Z,27.08
2023-05-09T01:33:59.500Z,26.47
2023-05-09T01:34:59.516Z,27.70
2023-05-09T01:35:59.525Z,25.65
2023-05-09T01:36:59.594Z,26.00
2023-05-09T01:37:59.591Z,27.14
2023-05-09T01:38:59.594Z,25.37
2023-05-09T01:39:59.591Z,26.18
2023-05-09T01:40:59.588Z,27.13
2023-05-09T01:41:59.595Z,27.25
2023-05-09T01:42:59.604Z,26.87
2023-05-09T01:43:59.647Z,26.08
2023-05-09T01:44:59.625Z,27.93
2023-05-09T01:45:59.770Z,25.00
2023-05-09T01:46:59.657Z,27.80
2023-05-09T01:47:59.666Z,26.99
2023-05-09T01:48:59.612Z,27.13
2023-05-09T01:49:59.609Z,25.76
2023-05-09T01:50:59.603Z,28.01
2023-05-09T01:51:59.599Z,28.25
2023-05-09T01:52:59.591Z,27.66
2023-05-09T01:53:59.586Z,27.70
2023-05-09T01:54:59.573Z,26.42
2023-05-09T01:55:59.568Z,26.59
2023-05-09T01:56:59.566Z,27.30
2023-05-09T01:57:59.593Z,29.25
2023-05-09T01:58:59.588Z,26.04
2023-05-09T01:59:59.581Z,27.23
2023-05-09T02:00:59.589Z,27.81
2023-05-09T02:01:59.733Z,26.56
2023-05-09T02:02:59.727Z,26.25
2023-05-09T02:03:59.618Z,27.53
2023-05-09T02:04:59.632Z,26.17
2023-05-09T02:05:59.640Z,26.97
2023-05-09T02:06:59.657Z,28.34
2023-05-09T02:07:59.680Z,29.65
2023-05-09T02:08:59.677Z,26.71
2023-05-09T02:09:59.657Z,26.66
2023-05-09T02:10:59.652Z,27.48
2023-05-09T02:11:59.656Z,25.75
2023-05-09T02:12:59.648Z,27.37
2023-05-09T02:13:59.623Z,27.67
2023-05-09T02:14:59.615Z,26.24
2023-05-09T02:15:59.631Z,25.25
2023-05-09T02:16:59.678Z,26.76
2023-05-09T02:17:59.837Z,29.32
2023-05-09T02:18:59.617Z,25.08
2023-05-09T02:19:59.594Z,26.38
2023-05-09T02:20:59.603Z,28.71
2023-05-09T02:21:59.583Z,25.00
2023-05-09T02:22:59.581Z,29.73
2023-05-09T02:23:59.575Z,27.55
2023-05-09T02:24:59.569Z,28.06
2023-05-09T02:25:59.554Z,27.18
2023-05-09T02:26:59.559Z,25.89
2023-05-09T02:27:59.542Z,27.23
2023-05-09T02:28:59.538Z,28.60
2023-05-09T02:29:59.536Z,26.30
2023-05-09T02:30:59.557Z,26.55
2023-05-09T02:31:59.579Z,25.42
2023-05-09T02:32:59.597Z,29.35
2023-05-09T02:33:59.706Z,26.22
2023-05-09T02:34:59.536Z,27.26
2023-05-09T02:35:59.543Z,28.59
2023-05-09T02:36:59.530Z,28.14
2023-05-09T02:37:59.530Z,28.08
2023-05-09T02:38:59.516Z,26.57
2023-05-09T02:39:59.495Z,26.49
2023-05-09T02:40:59.486Z,29.18
2023-05-09T02:41:59.483Z,26.14
2023-05-09T02:42:59.467Z,27.97
2023-05-09T02:43:59.464Z,28.05
2023-05-09T02:44:59.458Z,27.43
2023-05-09T02:45:59.475Z,27.85
2023-05-09T02:46:59.445Z,26.63
2023-05-09T02:47:59.464Z,27.85
2023-05-09T02:48:59.423Z,27.68
2023-05-09T02:49:59.565Z,26.49
2023-05-09T02:50:59.404Z,27.26
2023-05-09T02:51:59.413Z,27.27
2023-05-09T02:52:59.382Z,25.97
2023-05-09T02:53:59.375Z,28.71
2023-05-09T02:55:00.031Z,27.02
2023-05-09T02:55:59.358Z,27.14
2023-05-09T02:56:59.349Z,26.07
2023-05-09T02:58:12.621Z,27.44
2023-05-09T02:58:59.315Z,27.78
2023-05-09T02:59:59.299Z,28.81
2023-05-09T03:00:59.284Z,28.64
2023-05-09T03:01:59.295Z,29.23
2023-05-09T03:02:59.294Z,28.67
2023-05-09T03:03:59.250Z,28.14
2023-05-09T03:04:59.203Z,26.95
2023-05-09T03:05:59.326Z,27.17
2023-05-09T03:06:59.230Z,26.37
2023-05-09T03:07:59.165Z,28.40
2023-05-09T03:08:59.157Z,26.62
2023-05-09T03:09:59.137Z,28.28
2023-05-09T03:10:59.121Z,25.00
2023-05-09T03:11:59.127Z,26.04
2023-05-09T03:12:59.178Z,26.60
2023-05-09T03:13:59.089Z,28.86
2023-05-09T03:14:59.070Z,29.80
2023-05-09T03:15:59.030Z,28.89
2023-05-09T03:16:59.012Z,28.15
2023-05-09T03:17:59.048Z,27.64
2023-05-09T03:18:58.971Z,27.54
2023-05-09T03:19:59.974Z,28.98
2023-05-09T03:20:58.950Z,29.17
2023-05-09T03:21:59.049Z,29.74
2023-05-09T03:22:58.918Z,28.65
2023-05-09T03:23:58.910Z,29.71
2023-05-09T03:24:58.892Z,26.22
2023-05-09T03:25:58.886Z,26.38
2023-05-09T03:26:58.908Z,27.20
2023-05-09T03:27:58.869Z,28.85
2023-05-09T03:28:58.860Z,28.20
2023-05-09T03:29:59.658Z,27.05
2023-05-09T03:30:58.852Z,29.14
2023-05-09T03:31:58.804Z,27.54
2023-05-09T03:32:58.837Z,30.41
2023-05-09T03:33:58.785Z,29.89
2023-05-09T03:34:58.755Z,27.82
2023-05-09T03:35:58.745Z,25.90
2023-05-09T03:36:58.720Z,30.37
2023-05-09T03:37:57.875Z,34.11
2023-05-09T03:38:58.706Z,30.01
2023-05-09T03:39:58.686Z,30.22
2023-05-09T03:40:58.658Z,31.04
2023-05-09T03:41:58.644Z,28.83
2023-05-09T03:42:58.614Z,29.33
2023-05-09T03:43:58.604Z,27.59
2023-05-09T03:44:58.593Z,29.63
2023-05-09T03:45:58.590Z,26.24
2023-05-09T03:46:59.562Z,27.24
2023-05-09T03:47:58.620Z,28.26
2023-05-09T03:48:58.539Z,29.70
2023-05-09T03:49:58.526Z,28.86
2023-05-09T03:50:58.508Z,26.95
2023-05-09T03:51:58.500Z,28.38
2023-05-09T03:52:58.485Z,25.31
2023-05-09T03:53:58.587Z,24.59
2023-05-09T03:54:58.477Z,27.72
2023-05-09T03:55:58.441Z,29.65
2023-05-09T03:56:58.450Z,28.16
2023-05-09T03:57:58.410Z,28.46
2023-05-09T03:58:58.392Z,30.60
2023-05-09T03:59:58.381Z,27.83
2023-05-09T04:00:58.360Z,27.56
2023-05-09T04:01:58.409Z,26.73
2023-05-09T04:02:58.432Z,28.48
2023-05-09T04:03:58.382Z,29.16
2023-05-09T04:04:58.281Z,27.21
2023-05-09T04:05:58.267Z,25.54
2023-05-09T04:06:58.245Z,27.30
2023-05-09T04:07:58.242Z,26.32
2023-05-09T04:08:58.232Z,26.67
2023-05-09T04:09:58.329Z,25.48
2023-05-09T04:10:58.194Z,26.97
2023-05-09T04:11:58.182Z,27.34
2023-05-09T04:12:58.199Z,30.39
2023-05-09T04:13:58.164Z,27.55
2023-05-09T04:14:58.137Z,25.93
2023-05-09T04:15:58.133Z,27.65
2023-05-09T04:16:58.193Z,28.08
2023-05-09T04:17:58.184Z,27.37
2023-05-09T04:18:58.127Z,28.34
2023-05-09T04:19:58.117Z,26.52
2023-05-09T04:20:58.120Z,25.89
2023-05-09T04:21:58.113Z,26.14
2023-05-09T04:23:00.062Z,27.82
2023-05-09T04:23:58.101Z,25.72
2023-05-09T04:24:58.091Z,30.96
2023-05-09T04:25:58.197Z,25.06
2023-05-09T04:26:58.064Z,28.65
2023-05-09T04:27:58.078Z,25.00
2023-05-09T04:28:58.039Z,25.77
2023-05-09T04:29:58.015Z,26.50
2023-05-09T04:30:58.087Z,28.04
2023-05-09T04:31:58.068Z,26.59
2023-05-09T04:32:57.989Z,26.91
2023-05-09T04:33:57.942Z,29.30
2023-05-09T04:34:57.932Z,26.79
2023-05-09T04:35:57.912Z,25.94
2023-05-09T04:36:57.906Z,28.45
2023-05-09T04:37:57.883Z,25.85
2023-05-09T04:38:57.874Z,27.39
2023-05-09T04:39:57.864Z,29.80
2023-05-09T04:40:57.844Z,28.77
2023-05-09T04:41:57.938Z,30.36
2023-05-09T04:42:57.833Z,26.95
2023-05-09T04:43:57.858Z,26.46
2023-05-09T04:44:57.784Z,26.31
2023-05-09T04:45:57.778Z,28.39
2023-05-09T04:46:57.743Z,28.23
2023-05-09T04:47:57.782Z,26.05
2023-05-09T04:48:57.713Z,27.75
2023-05-09T04:49:57.719Z,28.03
2023-05-09T04:50:57.675Z,27.37
2023-05-09T04:51:57.682Z,28.07
2023-05-09T04:52:57.756Z,27.21
2023-05-09T04:53:57.645Z,28.05
2023-05-09T04:54:57.644Z,26.45
2023-05-09T04:55:57.622Z,27.61
2023-05-09T04:57:09.903Z,30.73
2023-05-09T04:57:57.716Z,31.12
2023-05-09T04:58:57.585Z,31.91
2023-05-09T04:59:57.572Z,31.16
2023-05-09T05:00:57.551Z,31.29
2023-05-09T05:01:57.569Z,32.20
2023-05-09T05:02:57.565Z,30.80
2023-05-09T05:03:57.513Z,31.55
2023-05-09T05:05:10.195Z,27.97
2023-05-09T05:05:57.484Z,28.46
2023-05-09T05:06:57.450Z,29.29
2023-05-09T05:07:57.427Z,30.34
2023-05-09T05:08:57.420Z,28.72
2023-05-09T05:09:57.396Z,29.78
2023-05-09T05:10:57.381Z,29.49
2023-05-09T05:12:01.282Z,26.28
2023-05-09T05:12:57.370Z,26.82
2023-05-09T05:13:57.447Z,28.01
2023-05-09T05:14:57.318Z,28.45
2023-05-09T05:15:57.308Z,28.38
2023-05-09T05:16:57.278Z,29.87
2023-05-09T05:17:57.296Z,26.86
2023-05-09T05:18:57.241Z,30.19
2023-05-09T05:19:57.231Z,27.88
2023-05-09T05:20:57.681Z,26.64
2023-05-09T05:21:57.197Z,25.93
2023-05-09T05:22:57.582Z,29.02
2023-05-09T05:23:57.168Z,27.19
2023-05-09T05:24:57.133Z,27.32
2023-05-09T05:25:57.123Z,28.35
2023-05-09T05:26:57.095Z,29.01
2023-05-09T05:27:57.603Z,28.48
2023-05-09T05:28:57.059Z,28.87
2023-05-09T05:29:57.491Z,28.45
2023-05-09T05:30:57.029Z,30.84
2023-05-09T05:31:57.150Z,28.09
2023-05-09T05:32:57.048Z,29.77
2023-05-09T05:33:56.997Z,30.32
2023-05-09T05:34:56.967Z,28.33
2023-05-09T05:35:56.971Z,31.25
2023-05-09T05:36:56.950Z,29.53
2023-05-09T05:37:57.133Z,32.18
2023-05-09T05:38:56.920Z,32.66
2023-05-09T05:39:56.907Z,31.13
2023-05-09T05:40:56.896Z,32.60
2023-05-09T05:41:56.871Z,31.80
2023-05-09T05:42:57.087Z,30.67
2023-05-09T05:44:12.483Z,39.86
2023-05-09T05:44:56.837Z,40.55
2023-05-09T05:45:56.981Z,42.49
2023-05-09T05:46:56.820Z,43.62
2023-05-09T05:47:57.100Z,48.23
2023-05-09T05:48:56.788Z,50.17
2023-05-09T05:49:56.781Z,52.43
2023-05-09T05:50:56.762Z,55.51
2023-05-09T05:51:56.744Z,56.62
2023-05-09T12:42:01.079Z,25.00
2023-05-09T12:42:51.043Z,25.00
2023-05-09T12:43:51.075Z,25.00
2023-05-09T12:44:51.071Z,25.00
2023-05-09T12:45:51.081Z,25.00
2023-05-09T12:46:51.135Z,25.00
2023-05-09T12:47:51.170Z,26.32
2023-05-09T12:48:51.117Z,25.00
2023-05-09T12:49:51.128Z,8.59
2023-05-09T12:50:51.199Z,26.68
2023-05-09T12:51:51.177Z,26.72
2023-05-09T12:53:02.636Z,26.47
2023-05-09T12:53:51.278Z,0.00
2023-05-09T12:54:51.274Z,0.00
2023-05-09T12:55:51.294Z,0.00
2023-05-09T12:56:51.309Z,0.00
2023-05-09T12:57:51.438Z,0.00
2023-05-09T12:58:51.327Z,25.00
2023-05-09T12:59:51.353Z,25.00
2023-05-09T13:00:51.401Z,25.48
2023-05-09T13:01:51.379Z,28.70
2023-05-09T13:02:51.431Z,50.93
2023-05-09T13:03:51.375Z,70.13
2023-05-09T13:04:51.703Z,67.96
2023-05-09T13:05:51.707Z,66.33
2023-05-09T13:06:51.402Z,69.94
2023-05-09T13:07:51.402Z,46.82
2023-05-09T13:08:51.418Z,24.74
2023-05-09T13:09:51.418Z,46.60
2023-05-09T13:10:57.843Z,36.53
2023-05-09T13:11:51.708Z,37.40
2023-05-09T13:12:51.567Z,40.58
2023-05-09T13:13:51.581Z,49.59
2023-05-09T13:14:51.459Z,49.82
2023-05-09T13:15:51.716Z,51.98
2023-05-09T13:16:51.584Z,51.53
2023-05-09T13:17:51.586Z,61.00
2023-05-09T13:18:51.485Z,91.02
2023-05-09T13:19:51.484Z,107.52
2023-05-09T13:20:51.498Z,122.22
2023-05-09T13:21:51.706Z,130.03
2023-05-09T13:22:51.517Z,144.13
2023-05-09T13:23:51.513Z,153.08
2023-05-09T13:24:51.515Z,184.21
2023-05-09T13:25:51.524Z,201.50
2023-05-09T13:26:51.529Z,183.32
2023-05-09T13:27:51.529Z,158.58
2023-05-09T13:28:51.529Z,179.39
2023-05-09T13:29:52.397Z,198.36
2023-05-09T13:30:51.603Z,221.14
2023-05-09T13:31:51.584Z,231.19
2023-05-09T13:32:51.661Z,250.00
2023-05-09T13:33:52.061Z,250.43
2023-05-09T13:34:51.762Z,249.16
2023-05-09T13:35:52.216Z,249.43
2023-05-09T13:36:51.919Z,247.39
2023-05-09T13:37:51.988Z,250.00
2023-05-09T13:38:52.217Z,250.00
2023-05-09T13:39:52.132Z,248.83
2023-05-09T13:40:52.721Z,249.59
2023-05-09T13:41:52.271Z,250.00
2023-05-09T13:42:52.347Z,250.00
2023-05-09T13:43:52.422Z,250.00
2023-05-09T13:44:52.493Z,250.00
2023-05-09T13:45:52.764Z,249.08
2023-05-09T13:46:52.694Z,250.00
2023-05-09T13:47:52.731Z,250.00
2023-05-09T13:48:53.225Z,250.00
2023-05-09T13:49:52.882Z,249.87
2023-05-09T13:50:52.929Z,249.47
2023-05-09T13:51:53.009Z,250.00
2023-05-09T13:52:53.100Z,249.41
2023-05-09T13:53:53.163Z,250.00
2023-05-09T13:54:53.253Z,249.38
2023-05-09T13:55:53.313Z,249.44
2023-05-09T13:56:53.393Z,249.68
2023-05-09T13:57:53.482Z,250.00
2023-05-09T13:58:53.549Z,249.42
2023-05-09T13:59:53.606Z,250.00
2023-05-09T14:00:53.702Z,250.00
2023-05-09T14:01:53.917Z,250.00
2023-05-09T14:02:53.933Z,249.44
2023-05-09T14:03:53.992Z,249.21
2023-05-09T14:04:53.976Z,249.50
2023-05-09T14:05:54.049Z,249.43
2023-05-09T14:06:54.120Z,249.43
2023-05-09T14:07:54.182Z,249.23
2023-05-09T14:08:54.723Z,248.97
2023-05-09T14:10:10.475Z,248.67
2023-05-09T14:10:54.332Z,248.95
2023-05-09T14:11:55.342Z,249.55
2023-05-09T14:12:54.451Z,251.16
2023-05-09T14:13:54.626Z,252.42
2023-05-09T14:14:54.362Z,256.25
2023-05-09T14:15:54.389Z,250.00
2023-05-09T14:16:54.369Z,249.77
2023-05-09T14:17:54.519Z,249.82
2023-05-09T14:18:54.428Z,249.27
2023-05-09T14:19:54.523Z,249.60
2023-05-09T14:20:54.575Z,248.96
2023-05-09T14:21:54.644Z,249.08
2023-05-09T14:22:54.734Z,250.00
2023-05-09T14:23:54.807Z,248.71
2023-05-09T14:24:54.878Z,248.76
2023-05-09T14:25:55.235Z,248.73
2023-05-09T14:26:55.002Z,249.21
2023-05-09T14:27:55.084Z,248.99
2023-05-09T14:28:55.167Z,248.26
2023-05-09T14:29:55.264Z,248.49
2023-05-09T14:30:55.310Z,248.65
2023-05-09T14:31:55.495Z,248.81
2023-05-09T14:32:55.451Z,248.85
2023-05-09T14:33:55.649Z,248.25
2023-05-09T14:34:55.619Z,248.22
2023-05-09T14:35:55.689Z,248.83
2023-05-09T14:36:55.758Z,249.04
2023-05-09T14:37:55.822Z,248.69
2023-05-09T14:38:55.909Z,248.55
2023-05-09T14:39:55.995Z,249.72
2023-05-09T14:40:56.067Z,248.73
2023-05-09T14:41:56.134Z,248.13
2023-05-09T14:42:56.210Z,249.81
2023-05-09T14:43:56.290Z,248.02
2023-05-09T14:44:56.364Z,248.13
2023-05-09T14:45:56.439Z,250.00
2023-05-09T14:46:56.791Z,248.72
2023-05-09T14:47:56.614Z,249.30
2023-05-09T14:48:56.659Z,248.64
2023-05-09T14:49:56.882Z,248.98
2023-05-09T14:50:56.790Z,249.34
2023-05-09T14:51:56.881Z,248.38
2023-05-09T14:52:56.951Z,249.14
2023-05-09T14:53:57.020Z,248.80
2023-05-09T14:54:57.104Z,249.64
2023-05-09T14:55:57.166Z,248.81
2023-05-09T14:56:57.233Z,249.01
2023-05-09T14:57:57.305Z,248.97
2023-05-09T14:58:57.381Z,248.93
2023-05-09T15:00:00.870Z,249.36
2023-05-09T15:00:57.778Z,249.52
2023-05-09T15:01:57.459Z,249.78
2023-05-09T15:02:57.654Z,250.04
2023-05-09T15:03:57.541Z,249.53
2023-05-09T15:04:57.495Z,248.76
2023-05-09T15:05:57.637Z,249.51
2023-05-09T15:06:57.515Z,248.45
2023-05-09T15:07:57.539Z,249.63
2023-05-09T15:08:57.551Z,247.78
2023-05-09T15:09:57.749Z,248.61
2023-05-09T15:10:57.570Z,247.64
2023-05-09T15:11:57.576Z,248.38
2023-05-09T15:12:57.593Z,248.21
2023-05-09T15:13:57.616Z,247.47
2023-05-09T15:14:58.248Z,247.00
2023-05-09T15:15:57.604Z,247.22
2023-05-09T15:16:57.664Z,246.34
2023-05-09T15:17:57.610Z,246.56
2023-05-09T15:18:57.614Z,246.56
2023-05-09T15:19:57.616Z,247.30
2023-05-09T15:20:57.641Z,247.90
2023-05-09T15:21:57.832Z,248.24
2023-05-09T15:22:57.789Z,247.10
2023-05-09T15:23:57.835Z,246.94
2023-05-09T15:24:57.908Z,247.69
2023-05-09T15:25:57.973Z,247.25
2023-05-09T15:26:58.052Z,248.41
2023-05-09T15:27:58.099Z,247.31
2023-05-09T15:28:58.158Z,247.14
2023-05-09T15:29:58.229Z,248.28
2023-05-09T15:30:58.368Z,248.21
2023-05-09T15:31:58.362Z,247.63
2023-05-09T15:32:58.480Z,247.37
2023-05-09T15:33:58.486Z,247.48
2023-05-09T15:34:58.543Z,247.87
2023-05-09T15:35:58.598Z,247.09
2023-05-09T15:36:58.670Z,247.61
2023-05-09T15:37:58.937Z,247.66
2023-05-09T15:38:58.787Z,247.83
2023-05-09T15:39:58.828Z,247.30
2023-05-09T15:40:58.885Z,247.93
2023-05-09T15:41:58.952Z,247.27
2023-05-09T15:42:59.014Z,247.20
2023-05-09T15:43:59.074Z,247.05
2023-05-09T15:44:59.125Z,247.53
2023-05-09T15:45:59.292Z,247.19
2023-05-09T15:46:59.240Z,247.71
2023-05-09T15:47:59.303Z,247.37
2023-05-09T15:48:59.352Z,247.86
2023-05-09T15:49:59.414Z,247.05
2023-05-09T15:50:59.485Z,247.03
2023-05-09T15:51:59.529Z,246.79
2023-05-09T15:52:59.588Z,246.29
2023-05-09T15:53:59.692Z,247.01
2023-05-09T15:54:59.758Z,247.12
2023-05-09T15:55:59.789Z,247.02
2023-05-09T15:56:59.831Z,246.50
2023-05-09T15:57:59.896Z,247.85
2023-05-09T15:58:59.963Z,246.77
2023-05-09T16:00:00.019Z,247.01
2023-05-09T16:01:00.092Z,245.65
2023-05-09T16:02:00.245Z,246.69
2023-05-09T16:03:00.363Z,245.74
2023-05-09T16:04:00.421Z,246.83
2023-05-09T16:05:00.327Z,244.10
2023-05-09T16:06:00.385Z,245.93
2023-05-09T16:07:00.449Z,246.58
2023-05-09T16:08:00.514Z,246.93
2023-05-09T16:09:00.561Z,246.04
2023-05-09T16:10:00.739Z,246.43
2023-05-09T16:11:00.680Z,245.34
2023-05-09T16:12:00.751Z,246.71
2023-05-09T16:13:00.857Z,246.69
2023-05-09T16:14:00.867Z,244.74
2023-05-09T16:15:00.907Z,246.02
2023-05-09T16:16:01.075Z,246.38
2023-05-09T16:17:01.037Z,245.65
2023-05-09T16:18:01.115Z,245.93
2023-05-09T16:19:01.151Z,246.25
2023-05-09T16:20:01.267Z,245.77
2023-05-09T16:21:01.310Z,245.78
2023-05-09T16:22:01.328Z,246.64
2023-05-09T16:23:01.390Z,245.99
2023-05-09T16:24:01.445Z,245.97
2023-05-09T16:25:01.518Z,245.59
2023-05-09T16:26:01.692Z,245.40
2023-05-09T16:27:01.639Z,245.40
2023-05-09T16:28:01.694Z,245.67
2023-05-09T16:29:01.746Z,246.33
2023-05-09T16:30:01.866Z,245.82
2023-05-09T16:31:01.873Z,244.74
2023-05-09T16:32:02.061Z,246.54
2023-05-09T16:33:02.134Z,245.74
2023-05-09T16:34:02.062Z,245.93
2023-05-09T16:35:02.110Z,245.79
2023-05-09T16:36:02.177Z,244.91
2023-05-09T16:37:02.230Z,245.15
2023-05-09T16:38:02.288Z,245.74
2023-05-09T16:39:02.333Z,245.41
2023-05-09T16:40:02.397Z,246.26
2023-05-09T16:41:02.475Z,245.82
2023-05-09T16:42:02.678Z,246.37
2023-05-09T16:43:02.576Z,246.52
2023-05-09T16:44:02.633Z,245.99
2023-05-09T16:45:02.702Z,246.06
2023-05-09T16:46:02.808Z,247.95
2023-05-09T16:47:02.877Z,246.03
2023-05-09T16:48:02.918Z,246.94
2023-05-09T16:49:02.946Z,246.14
2023-05-09T16:50:03.017Z,245.42
2023-05-09T16:51:03.082Z,246.38
2023-05-09T16:52:04.011Z,246.30
2023-05-09T16:53:03.197Z,246.79
2023-05-09T16:54:03.260Z,246.98
2023-05-09T16:55:03.316Z,245.67
2023-05-09T16:56:03.385Z,246.44
2023-05-09T16:57:03.465Z,246.32
2023-05-09T16:58:03.636Z,245.94
2023-05-09T16:59:03.610Z,245.65
2023-05-09T17:00:03.642Z,246.46
2023-05-09T17:01:03.783Z,245.88
2023-05-09T17:02:03.755Z,246.19
2023-05-09T17:03:03.871Z,245.71
2023-05-09T17:04:03.916Z,245.88
2023-05-09T17:05:03.937Z,245.28
2023-05-09T17:06:03.993Z,245.37
2023-05-09T17:07:04.055Z,246.99
2023-05-09T17:08:04.102Z,245.82
2023-05-09T17:09:04.170Z,245.65
2023-05-09T17:10:04.233Z,246.81
2023-05-09T17:11:04.300Z,246.13
2023-05-09T17:12:04.367Z,245.64
2023-05-09T17:13:04.458Z,245.45
2023-05-09T17:14:04.581Z,246.60
2023-05-09T17:15:04.526Z,245.73
2023-05-09T17:16:04.642Z,245.55
2023-05-09T17:17:04.661Z,246.10
2023-05-09T17:18:04.875Z,245.72
2023-05-09T17:19:04.770Z,246.57
2023-05-09T17:20:04.864Z,246.00
2023-05-09T17:21:04.919Z,245.81
2023-05-09T17:22:04.982Z,245.13
2023-05-09T17:23:05.043Z,246.93
2023-05-09T17:24:05.083Z,246.02
2023-05-09T17:25:05.214Z,246.10
2023-05-09T17:26:05.218Z,246.71
2023-05-09T17:27:05.302Z,246.64
2023-05-09T17:28:05.364Z,246.64
2023-05-09T17:29:05.411Z,246.02
2023-05-09T17:30:05.490Z,247.35
2023-05-09T17:31:05.524Z,246.13
2023-05-09T17:32:05.618Z,246.18
2023-05-09T17:33:05.798Z,245.82
2023-05-09T17:34:05.822Z,247.36
2023-05-09T17:35:05.805Z,246.59
2023-05-09T17:36:05.842Z,245.79
2023-05-09T17:37:05.958Z,246.47
2023-05-09T17:38:05.983Z,247.18
2023-05-09T17:39:06.052Z,246.43
2023-05-09T17:40:06.125Z,246.27
2023-05-09T17:41:06.226Z,246.31
2023-05-09T17:42:06.264Z,247.87
2023-05-09T17:43:06.352Z,246.02
2023-05-09T17:44:06.400Z,246.63
2023-05-09T17:45:06.469Z,246.22
2023-05-09T17:46:06.714Z,245.73
2023-05-09T17:47:06.604Z,246.13
2023-05-09T17:48:06.778Z,245.44
2023-05-09T17:49:06.747Z,246.51
2023-05-09T17:50:06.819Z,246.60
2023-05-09T17:51:06.968Z,246.88
2023-05-09T17:52:06.964Z,245.59
2023-05-09T17:53:07.037Z,246.23
2023-05-09T17:54:07.114Z,246.21
2023-05-09T17:55:07.175Z,246.09
2023-05-09T17:56:07.271Z,246.64
2023-05-09T17:57:07.319Z,246.53
2023-05-09T17:58:07.398Z,246.01
2023-05-09T17:59:07.477Z,247.73
2023-05-09T18:00:07.541Z,246.70
2023-05-09T18:01:07.790Z,247.25
2023-05-09T18:02:07.807Z,246.75
2023-05-09T18:03:07.950Z,246.16
2023-05-09T18:04:07.839Z,245.65
2023-05-09T18:05:07.919Z,246.81
2023-05-09T18:06:08.051Z,245.91
2023-05-09T18:07:08.065Z,247.71
2023-05-09T18:08:08.142Z,244.93
2023-05-09T18:09:08.217Z,245.31
2023-05-09T18:10:08.310Z,247.33
2023-05-09T18:11:08.414Z,246.80
2023-05-09T18:12:08.452Z,248.04
2023-05-09T18:13:08.624Z,245.73
2023-05-09T18:14:08.612Z,247.03
2023-05-09T18:15:08.686Z,247.11
2023-05-09T18:16:08.812Z,246.56
2023-05-09T18:17:08.881Z,245.75
2023-05-09T18:18:09.856Z,245.43
2023-05-09T18:19:09.180Z,247.01
2023-05-09T18:20:09.267Z,245.77
2023-05-09T18:21:09.349Z,246.64
2023-05-09T18:22:09.425Z,246.71
2023-05-09T18:23:09.477Z,246.03
2023-05-09T18:24:09.575Z,246.40
2023-05-09T18:25:09.628Z,245.73
2023-05-09T18:26:09.699Z,246.41
2023-05-09T18:27:09.791Z,246.76
2023-05-09T18:28:09.914Z,246.70
2023-05-09T18:29:09.941Z,246.62
2023-05-09T18:30:10.029Z,248.26
2023-05-09T18:31:10.174Z,247.22
2023-05-09T18:32:10.235Z,247.75
2023-05-09T18:33:10.327Z,247.13
2023-05-09T18:34:10.455Z,246.48
2023-05-09T18:35:10.422Z,246.56
2023-05-09T18:36:10.493Z,247.54
2023-05-09T18:37:10.581Z,247.17
2023-05-09T18:38:10.658Z,246.04
2023-05-09T18:39:10.711Z,247.80
2023-05-09T18:40:10.810Z,246.92
2023-05-09T18:41:10.872Z,247.39
2023-05-09T18:42:10.968Z,248.00
2023-05-09T18:43:11.046Z,247.67
2023-05-09T18:44:11.105Z,247.46
2023-05-09T18:45:11.174Z,246.37
2023-05-09T18:46:11.247Z,245.77
2023-05-09T18:47:11.350Z,247.50
2023-05-09T18:48:11.386Z,246.92
2023-05-09T18:49:11.459Z,246.63
2023-05-09T18:50:11.632Z,246.99
2023-05-09T18:51:11.642Z,247.28
2023-05-09T18:52:11.637Z,245.39
2023-05-09T18:53:11.739Z,246.15
2023-05-09T18:54:11.766Z,246.51
2023-05-09T18:55:11.787Z,245.78
2023-05-09T18:56:11.909Z,246.01
2023-05-09T18:57:11.860Z,245.62
2023-05-09T18:58:11.931Z,245.62
2023-05-09T18:59:12.005Z,245.67
2023-05-09T19:00:12.018Z,246.87
2023-05-09T19:01:12.106Z,245.04
2023-05-09T19:02:12.142Z,246.61
2023-05-09T19:03:12.203Z,246.43
2023-05-09T19:04:12.301Z,246.04
2023-05-09T19:05:12.273Z,246.46
2023-05-09T19:06:12.468Z,245.45
2023-05-09T19:07:12.364Z,245.69
2023-05-09T19:08:12.389Z,245.69
2023-05-09T19:09:12.435Z,245.23
2023-05-09T19:10:12.600Z,246.91
2023-05-09T19:11:12.533Z,247.68
2023-05-09T19:12:12.588Z,246.56
2023-05-09T19:13:14.684Z,246.31
2023-05-09T19:14:12.574Z,246.46
2023-05-09T19:15:12.581Z,246.33
2023-05-09T19:16:12.649Z,246.95
2023-05-09T19:17:12.608Z,246.18
2023-05-09T19:18:12.700Z,246.50
2023-05-09T19:19:12.637Z,247.26
2023-05-09T19:20:12.676Z,246.67
2023-05-09T19:21:12.655Z,246.74
2023-05-09T19:22:12.782Z,245.81
2023-05-09T19:23:12.671Z,246.38
2023-05-09T19:24:12.656Z,245.66
2023-05-09T19:25:12.676Z,245.41
2023-05-09T19:26:12.664Z,246.52
2023-05-09T19:27:12.664Z,247.18
2023-05-09T19:28:12.673Z,245.83
2023-05-09T19:29:12.685Z,245.97
2023-05-09T19:30:12.833Z,245.18
2023-05-09T19:31:12.708Z,246.94